sensor_id;sensor_type;location;lat;lon;timestamp;P1;durP1;ratioP1;P2;durP2;ratioP2
14326;SDS011;7247;53.330;-1.180;2022-09-09T00:01:46;73.57;;;34.70;;
14326;SDS011;7247;53.330;-1.180;2022-09-09T00:04:19;64.93;;;33.47;;
14326;SDS011;7247;53.330;-1.180;2022-09-09T00:06:50;71.43;;;34.73;;
14326;SDS011;7247;53.330;-1.180;2022-09-09T00:09:23;62.10;;;35.10;;
14326;SDS011;7247;53.330;-1.180;2022-09-09T00:11:52;66.83;;;34.90;;
14326;SDS011;7247;53.330;-1.180;2022-09-09T00:14:21;63.90;;;34.50;;
14326;SDS011;7247;53.330;-1.180;2022-09-09T00:16:52;54.40;;;33.27;;
14326;SDS011;7247;53.330;-1.180;2022-09-09T00:19:22;55.60;;;32.70;;
14326;SDS011;7247;53.330;-1.180;2022-09-09T00:21:52;49.73;;;31.33;;
14326;SDS011;7247;53.330;-1.180;2022-09-09T00:24:34;52.00;;;30.87;;
14326;SDS011;7247;53.330;-1.180;2022-09-09T00:27:08;50.93;;;29.57;;
14326;SDS011;7247;53.330;-1.180;2022-09-09T00:29:38;44.23;;;26.43;;
14326;SDS011;7247;53.330;-1.180;2022-09-09T00:32:11;48.47;;;27.73;;
14326;SDS011;7247;53.330;-1.180;2022-09-09T00:34:37;44.87;;;27.13;;
14326;SDS011;7247;53.330;-1.180;2022-09-09T00:37:07;32.80;;;23.27;;
14326;SDS011;7247;53.330;-1.180;2022-09-09T00:39:36;31.30;;;21.70;;
14326;SDS011;7247;53.330;-1.180;2022-09-09T00:42:08;28.80;;;19.50;;
14326;SDS011;7247;53.330;-1.180;2022-09-09T00:44:36;28.47;;;20.70;;
14326;SDS011;7247;53.330;-1.180;2022-09-09T00:49:53;28.50;;;20.03;;
14326;SDS011;7247;53.330;-1.180;2022-09-09T00:52:26;27.97;;;21.23;;
14326;SDS011;7247;53.330;-1.180;2022-09-09T00:54:57;31.83;;;20.33;;
14326;SDS011;7247;53.330;-1.180;2022-09-09T00:57:30;31.23;;;21.40;;
14326;SDS011;7247;53.330;-1.180;2022-09-09T00:59:58;32.40;;;21.27;;
14326;SDS011;7247;53.330;-1.180;2022-09-09T01:02:30;31.97;;;21.03;;
14326;SDS011;7247;53.330;-1.180;2022-09-09T01:04:59;27.17;;;20.50;;
14326;SDS011;7247;53.330;-1.180;2022-09-09T01:07:27;30.27;;;20.07;;
14326;SDS011;7247;53.330;-1.180;2022-09-09T01:09:55;26.60;;;19.80;;
14326;SDS011;7247;53.330;-1.180;2022-09-09T01:12:28;26.37;;;20.13;;
14326;SDS011;7247;53.330;-1.180;2022-09-09T01:14:58;27.77;;;20.23;;
14326;SDS011;7247;53.330;-1.180;2022-09-09T01:17:28;33.97;;;22.33;;
14326;SDS011;7247;53.330;-1.180;2022-09-09T01:20:03;48.60;;;24.87;;
14326;SDS011;7247;53.330;-1.180;2022-09-09T01:22:33;48.90;;;23.80;;
14326;SDS011;7247;53.330;-1.180;2022-09-09T01:25:12;43.63;;;24.63;;
14326;SDS011;7247;53.330;-1.180;2022-09-09T01:27:43;41.70;;;24.30;;
14326;SDS011;7247;53.330;-1.180;2022-09-09T01:30:10;42.73;;;24.57;;
14326;SDS011;7247;53.330;-1.180;2022-09-09T01:32:39;40.03;;;23.17;;
14326;SDS011;7247;53.330;-1.180;2022-09-09T01:35:06;40.87;;;23.30;;
14326;SDS011;7247;53.330;-1.180;2022-09-09T01:37:34;41.97;;;23.90;;
14326;SDS011;7247;53.330;-1.180;2022-09-09T01:40:00;36.93;;;22.13;;
14326;SDS011;7247;53.330;-1.180;2022-09-09T01:42:27;41.47;;;22.40;;
14326;SDS011;7247;53.330;-1.180;2022-09-09T01:44:55;39.77;;;21.53;;
14326;SDS011;7247;53.330;-1.180;2022-09-09T01:50:07;38.00;;;19.10;;
14326;SDS011;7247;53.330;-1.180;2022-09-09T01:52:34;37.70;;;20.83;;
14326;SDS011;7247;53.330;-1.180;2022-09-09T01:55:02;38.07;;;18.70;;
14326;SDS011;7247;53.330;-1.180;2022-09-09T01:57:30;37.67;;;18.97;;
14326;SDS011;7247;53.330;-1.180;2022-09-09T02:00:03;49.97;;;21.20;;
14326;SDS011;7247;53.330;-1.180;2022-09-09T02:02:32;36.23;;;20.00;;
14326;SDS011;7247;53.330;-1.180;2022-09-09T02:05:01;42.73;;;20.57;;
14326;SDS011;7247;53.330;-1.180;2022-09-09T02:07:37;61.50;;;21.20;;
14326;SDS011;7247;53.330;-1.180;2022-09-09T02:10:05;60.20;;;21.90;;
14326;SDS011;7247;53.330;-1.180;2022-09-09T02:12:35;53.67;;;20.57;;
14326;SDS011;7247;53.330;-1.180;2022-09-09T02:15:05;53.93;;;21.80;;
14326;SDS011;7247;53.330;-1.180;2022-09-09T02:17:35;70.80;;;22.83;;
14326;SDS011;7247;53.330;-1.180;2022-09-09T02:20:03;63.07;;;24.00;;
14326;SDS011;7247;53.330;-1.180;2022-09-09T02:22:31;73.03;;;26.73;;
14326;SDS011;7247;53.330;-1.180;2022-09-09T02:24:59;72.97;;;27.07;;
14326;SDS011;7247;53.330;-1.180;2022-09-09T02:27:26;83.27;;;26.60;;
14326;SDS011;7247;53.330;-1.180;2022-09-09T02:29:53;71.53;;;26.27;;
14326;SDS011;7247;53.330;-1.180;2022-09-09T02:32:23;83.23;;;25.87;;
14326;SDS011;7247;53.330;-1.180;2022-09-09T02:34:51;77.23;;;26.27;;
14326;SDS011;7247;53.330;-1.180;2022-09-09T02:37:21;87.60;;;27.63;;
14326;SDS011;7247;53.330;-1.180;2022-09-09T02:39:50;74.53;;;27.10;;
14326;SDS011;7247;53.330;-1.180;2022-09-09T02:42:16;109.83;;;28.43;;
14326;SDS011;7247;53.330;-1.180;2022-09-09T02:44:43;64.60;;;25.90;;
14326;SDS011;7247;53.330;-1.180;2022-09-09T02:47:14;55.13;;;23.47;;
14326;SDS011;7247;53.330;-1.180;2022-09-09T02:49:48;60.83;;;24.20;;
14326;SDS011;7247;53.330;-1.180;2022-09-09T02:52:19;59.80;;;24.73;;
14326;SDS011;7247;53.330;-1.180;2022-09-09T02:54:48;69.43;;;24.77;;
14326;SDS011;7247;53.330;-1.180;2022-09-09T02:57:19;49.67;;;23.70;;
14326;SDS011;7247;53.330;-1.180;2022-09-09T02:59:47;64.53;;;23.57;;
14326;SDS011;7247;53.330;-1.180;2022-09-09T03:02:14;66.17;;;24.17;;
14326;SDS011;7247;53.330;-1.180;2022-09-09T03:04:41;72.17;;;23.90;;
14326;SDS011;7247;53.330;-1.180;2022-09-09T03:07:11;66.47;;;23.47;;
14326;SDS011;7247;53.330;-1.180;2022-09-09T03:09:38;82.67;;;25.80;;
14326;SDS011;7247;53.330;-1.180;2022-09-09T03:12:04;72.03;;;25.73;;
14326;SDS011;7247;53.330;-1.180;2022-09-09T03:14:31;63.30;;;26.47;;
14326;SDS011;7247;53.330;-1.180;2022-09-09T03:16:57;67.07;;;26.77;;
14326;SDS011;7247;53.330;-1.180;2022-09-09T03:19:26;66.57;;;27.27;;
14326;SDS011;7247;53.330;-1.180;2022-09-09T03:21:52;77.37;;;28.20;;
14326;SDS011;7247;53.330;-1.180;2022-09-09T03:24:20;84.10;;;29.10;;
14326;SDS011;7247;53.330;-1.180;2022-09-09T03:26:48;69.87;;;29.40;;
14326;SDS011;7247;53.330;-1.180;2022-09-09T03:29:15;79.80;;;29.73;;
14326;SDS011;7247;53.330;-1.180;2022-09-09T03:31:43;92.80;;;31.33;;
14326;SDS011;7247;53.330;-1.180;2022-09-09T03:34:09;93.60;;;30.37;;
14326;SDS011;7247;53.330;-1.180;2022-09-09T03:36:37;81.03;;;31.47;;
14326;SDS011;7247;53.330;-1.180;2022-09-09T03:39:04;80.70;;;32.73;;
14326;SDS011;7247;53.330;-1.180;2022-09-09T03:41:31;91.13;;;32.83;;
14326;SDS011;7247;53.330;-1.180;2022-09-09T03:43:59;95.87;;;33.83;;
14326;SDS011;7247;53.330;-1.180;2022-09-09T03:49:28;93.00;;;34.30;;
14326;SDS011;7247;53.330;-1.180;2022-09-09T03:51:55;102.57;;;36.20;;
14326;SDS011;7247;53.330;-1.180;2022-09-09T03:54:21;101.63;;;35.70;;
14326;SDS011;7247;53.330;-1.180;2022-09-09T03:56:49;115.10;;;38.70;;
14326;SDS011;7247;53.330;-1.180;2022-09-09T03:59:16;116.97;;;37.97;;
14326;SDS011;7247;53.330;-1.180;2022-09-09T04:01:42;126.20;;;39.10;;
14326;SDS011;7247;53.330;-1.180;2022-09-09T04:04:10;113.27;;;38.73;;
14326;SDS011;7247;53.330;-1.180;2022-09-09T04:06:38;115.97;;;39.10;;
14326;SDS011;7247;53.330;-1.180;2022-09-09T04:09:05;111.23;;;38.70;;
14326;SDS011;7247;53.330;-1.180;2022-09-09T04:11:31;122.67;;;40.60;;
14326;SDS011;7247;53.330;-1.180;2022-09-09T04:13:59;124.23;;;39.47;;
14326;SDS011;7247;53.330;-1.180;2022-09-09T04:16:27;126.87;;;42.10;;
14326;SDS011;7247;53.330;-1.180;2022-09-09T04:18:54;126.33;;;42.23;;
14326;SDS011;7247;53.330;-1.180;2022-09-09T04:21:21;133.67;;;41.70;;
14326;SDS011;7247;53.330;-1.180;2022-09-09T04:23:48;122.30;;;41.90;;
14326;SDS011;7247;53.330;-1.180;2022-09-09T04:26:16;112.20;;;41.83;;
14326;SDS011;7247;53.330;-1.180;2022-09-09T04:28:43;114.30;;;42.10;;
14326;SDS011;7247;53.330;-1.180;2022-09-09T04:31:13;125.47;;;42.93;;
14326;SDS011;7247;53.330;-1.180;2022-09-09T04:33:41;123.50;;;44.13;;
14326;SDS011;7247;53.330;-1.180;2022-09-09T04:36:10;119.40;;;43.03;;
14326;SDS011;7247;53.330;-1.180;2022-09-09T04:38:36;121.87;;;44.87;;
14326;SDS011;7247;53.330;-1.180;2022-09-09T04:41:02;117.17;;;42.07;;
14326;SDS011;7247;53.330;-1.180;2022-09-09T04:43:29;114.07;;;41.13;;
14326;SDS011;7247;53.330;-1.180;2022-09-09T04:45:57;114.60;;;42.43;;
14326;SDS011;7247;53.330;-1.180;2022-09-09T04:48:25;105.07;;;39.87;;
14326;SDS011;7247;53.330;-1.180;2022-09-09T04:50:56;112.57;;;42.80;;
14326;SDS011;7247;53.330;-1.180;2022-09-09T04:53:23;107.30;;;41.47;;
14326;SDS011;7247;53.330;-1.180;2022-09-09T04:55:50;104.27;;;39.70;;
14326;SDS011;7247;53.330;-1.180;2022-09-09T04:58:16;100.40;;;40.63;;
14326;SDS011;7247;53.330;-1.180;2022-09-09T05:00:43;97.50;;;41.37;;
14326;SDS011;7247;53.330;-1.180;2022-09-09T05:03:10;110.20;;;41.30;;
14326;SDS011;7247;53.330;-1.180;2022-09-09T05:05:40;100.70;;;41.37;;
14326;SDS011;7247;53.330;-1.180;2022-09-09T05:08:07;94.13;;;38.53;;
14326;SDS011;7247;53.330;-1.180;2022-09-09T05:10:36;81.77;;;36.60;;
14326;SDS011;7247;53.330;-1.180;2022-09-09T05:13:03;82.20;;;36.37;;
14326;SDS011;7247;53.330;-1.180;2022-09-09T05:15:30;98.10;;;38.00;;
14326;SDS011;7247;53.330;-1.180;2022-09-09T05:17:57;91.60;;;38.60;;
14326;SDS011;7247;53.330;-1.180;2022-09-09T05:20:24;86.40;;;36.37;;
14326;SDS011;7247;53.330;-1.180;2022-09-09T05:22:53;87.17;;;36.30;;
14326;SDS011;7247;53.330;-1.180;2022-09-09T05:25:21;89.27;;;36.40;;
14326;SDS011;7247;53.330;-1.180;2022-09-09T05:27:49;82.07;;;35.50;;
14326;SDS011;7247;53.330;-1.180;2022-09-09T05:30:16;94.67;;;39.07;;
14326;SDS011;7247;53.330;-1.180;2022-09-09T05:32:44;97.17;;;38.83;;
14326;SDS011;7247;53.330;-1.180;2022-09-09T05:35:10;95.87;;;40.63;;
14326;SDS011;7247;53.330;-1.180;2022-09-09T05:37:38;101.87;;;39.67;;
14326;SDS011;7247;53.330;-1.180;2022-09-09T05:40:06;92.87;;;37.53;;
14326;SDS011;7247;53.330;-1.180;2022-09-09T05:42:33;98.37;;;37.97;;
14326;SDS011;7247;53.330;-1.180;2022-09-09T05:44:59;92.50;;;37.30;;
14326;SDS011;7247;53.330;-1.180;2022-09-09T05:47:26;105.43;;;38.87;;
14326;SDS011;7247;53.330;-1.180;2022-09-09T05:49:53;106.53;;;38.43;;
14326;SDS011;7247;53.330;-1.180;2022-09-09T05:52:19;96.10;;;38.93;;
14326;SDS011;7247;53.330;-1.180;2022-09-09T05:54:46;96.27;;;40.03;;
14326;SDS011;7247;53.330;-1.180;2022-09-09T05:57:14;99.17;;;38.23;;
14326;SDS011;7247;53.330;-1.180;2022-09-09T05:59:40;90.37;;;36.63;;
14326;SDS011;7247;53.330;-1.180;2022-09-09T06:02:07;84.63;;;34.83;;
14326;SDS011;7247;53.330;-1.180;2022-09-09T06:04:34;71.87;;;31.07;;
14326;SDS011;7247;53.330;-1.180;2022-09-09T06:07:02;69.93;;;31.13;;
14326;SDS011;7247;53.330;-1.180;2022-09-09T06:09:29;79.63;;;33.90;;
14326;SDS011;7247;53.330;-1.180;2022-09-09T06:11:55;83.87;;;36.60;;
14326;SDS011;7247;53.330;-1.180;2022-09-09T06:14:24;94.90;;;40.07;;
14326;SDS011;7247;53.330;-1.180;2022-09-09T06:16:52;88.20;;;38.83;;
14326;SDS011;7247;53.330;-1.180;2022-09-09T06:19:19;80.93;;;36.00;;
14326;SDS011;7247;53.330;-1.180;2022-09-09T06:21:45;76.07;;;34.23;;
14326;SDS011;7247;53.330;-1.180;2022-09-09T06:24:12;70.00;;;32.90;;
14326;SDS011;7247;53.330;-1.180;2022-09-09T06:26:44;71.27;;;33.67;;
14326;SDS011;7247;53.330;-1.180;2022-09-09T06:29:11;64.70;;;32.10;;
14326;SDS011;7247;53.330;-1.180;2022-09-09T06:31:39;67.80;;;31.97;;
14326;SDS011;7247;53.330;-1.180;2022-09-09T06:34:06;60.23;;;31.00;;
14326;SDS011;7247;53.330;-1.180;2022-09-09T06:36:36;65.47;;;32.10;;
14326;SDS011;7247;53.330;-1.180;2022-09-09T06:39:03;59.43;;;30.50;;
14326;SDS011;7247;53.330;-1.180;2022-09-09T06:41:30;53.07;;;30.23;;
14326;SDS011;7247;53.330;-1.180;2022-09-09T06:43:57;51.27;;;29.00;;
14326;SDS011;7247;53.330;-1.180;2022-09-09T06:46:25;54.40;;;29.60;;
14326;SDS011;7247;53.330;-1.180;2022-09-09T06:48:54;47.03;;;27.30;;
14326;SDS011;7247;53.330;-1.180;2022-09-09T06:51:22;48.00;;;25.67;;
14326;SDS011;7247;53.330;-1.180;2022-09-09T06:53:50;44.27;;;25.23;;
14326;SDS011;7247;53.330;-1.180;2022-09-09T06:56:18;42.63;;;24.43;;
14326;SDS011;7247;53.330;-1.180;2022-09-09T06:58:46;39.73;;;24.20;;
14326;SDS011;7247;53.330;-1.180;2022-09-09T07:01:14;36.53;;;23.83;;
14326;SDS011;7247;53.330;-1.180;2022-09-09T07:03:44;38.23;;;24.40;;
14326;SDS011;7247;53.330;-1.180;2022-09-09T07:06:15;43.20;;;25.53;;
14326;SDS011;7247;53.330;-1.180;2022-09-09T07:08:43;41.23;;;26.40;;
14326;SDS011;7247;53.330;-1.180;2022-09-09T07:11:09;40.40;;;25.80;;
14326;SDS011;7247;53.330;-1.180;2022-09-09T07:13:36;45.50;;;25.73;;
14326;SDS011;7247;53.330;-1.180;2022-09-09T07:16:03;44.20;;;26.43;;
14326;SDS011;7247;53.330;-1.180;2022-09-09T07:18:30;39.47;;;25.83;;
14326;SDS011;7247;53.330;-1.180;2022-09-09T07:20:57;41.47;;;26.93;;
14326;SDS011;7247;53.330;-1.180;2022-09-09T07:23:25;40.97;;;27.00;;
14326;SDS011;7247;53.330;-1.180;2022-09-09T07:25:54;46.47;;;27.63;;
14326;SDS011;7247;53.330;-1.180;2022-09-09T07:28:20;50.43;;;29.53;;
14326;SDS011;7247;53.330;-1.180;2022-09-09T07:30:52;41.67;;;26.90;;
14326;SDS011;7247;53.330;-1.180;2022-09-09T07:33:19;43.00;;;26.73;;
14326;SDS011;7247;53.330;-1.180;2022-09-09T07:35:46;42.27;;;27.23;;
14326;SDS011;7247;53.330;-1.180;2022-09-09T07:38:12;41.13;;;27.17;;
14326;SDS011;7247;53.330;-1.180;2022-09-09T07:40:41;41.37;;;25.53;;
14326;SDS011;7247;53.330;-1.180;2022-09-09T07:43:08;38.90;;;25.90;;
14326;SDS011;7247;53.330;-1.180;2022-09-09T07:45:37;37.50;;;24.70;;
14326;SDS011;7247;53.330;-1.180;2022-09-09T07:48:05;28.03;;;20.70;;
14326;SDS011;7247;53.330;-1.180;2022-09-09T07:50:32;28.73;;;19.43;;
14326;SDS011;7247;53.330;-1.180;2022-09-09T07:52:58;28.80;;;18.17;;
14326;SDS011;7247;53.330;-1.180;2022-09-09T07:55:25;33.53;;;18.77;;
14326;SDS011;7247;53.330;-1.180;2022-09-09T07:57:53;27.60;;;18.83;;
14326;SDS011;7247;53.330;-1.180;2022-09-09T08:00:21;29.30;;;18.57;;
14326;SDS011;7247;53.330;-1.180;2022-09-09T08:02:49;28.17;;;18.47;;
14326;SDS011;7247;53.330;-1.180;2022-09-09T08:05:16;31.10;;;17.50;;
14326;SDS011;7247;53.330;-1.180;2022-09-09T08:07:43;22.27;;;16.10;;
14326;SDS011;7247;53.330;-1.180;2022-09-09T08:10:10;24.37;;;16.17;;
14326;SDS011;7247;53.330;-1.180;2022-09-09T08:12:36;20.27;;;15.60;;
14326;SDS011;7247;53.330;-1.180;2022-09-09T08:15:07;21.50;;;14.40;;
14326;SDS011;7247;53.330;-1.180;2022-09-09T08:17:36;22.80;;;14.03;;
14326;SDS011;7247;53.330;-1.180;2022-09-09T08:20:05;18.63;;;12.43;;
14326;SDS011;7247;53.330;-1.180;2022-09-09T08:22:32;17.80;;;12.63;;
14326;SDS011;7247;53.330;-1.180;2022-09-09T08:24:59;17.03;;;11.97;;
14326;SDS011;7247;53.330;-1.180;2022-09-09T08:27:26;14.67;;;11.53;;
14326;SDS011;7247;53.330;-1.180;2022-09-09T08:29:53;14.70;;;10.43;;
14326;SDS011;7247;53.330;-1.180;2022-09-09T08:32:22;18.00;;;10.93;;
14326;SDS011;7247;53.330;-1.180;2022-09-09T08:34:48;14.40;;;11.60;;
14326;SDS011;7247;53.330;-1.180;2022-09-09T08:37:17;15.47;;;11.77;;
14326;SDS011;7247;53.330;-1.180;2022-09-09T08:39:45;17.83;;;11.57;;
14326;SDS011;7247;53.330;-1.180;2022-09-09T08:42:17;11.57;;;9.23;;
14326;SDS011;7247;53.330;-1.180;2022-09-09T08:44:55;15.47;;;9.00;;
14326;SDS011;7247;53.330;-1.180;2022-09-09T08:47:29;14.67;;;8.47;;
14326;SDS011;7247;53.330;-1.180;2022-09-09T08:50:11;11.87;;;7.53;;
14326;SDS011;7247;53.330;-1.180;2022-09-09T08:52:40;11.57;;;6.70;;
14326;SDS011;7247;53.330;-1.180;2022-09-09T08:55:14;10.57;;;8.00;;
14326;SDS011;7247;53.330;-1.180;2022-09-09T08:57:42;10.20;;;8.17;;
14326;SDS011;7247;53.330;-1.180;2022-09-09T09:00:11;15.73;;;9.47;;
14326;SDS011;7247;53.330;-1.180;2022-09-09T09:02:40;11.73;;;8.97;;
14326;SDS011;7247;53.330;-1.180;2022-09-09T09:05:12;12.43;;;9.10;;
14326;SDS011;7247;53.330;-1.180;2022-09-09T09:07:46;13.63;;;9.37;;
14326;SDS011;7247;53.330;-1.180;2022-09-09T09:10:16;13.33;;;9.70;;
14326;SDS011;7247;53.330;-1.180;2022-09-09T09:12:44;14.20;;;10.13;;
14326;SDS011;7247;53.330;-1.180;2022-09-09T09:15:14;12.30;;;9.40;;
14326;SDS011;7247;53.330;-1.180;2022-09-09T09:17:44;14.63;;;10.33;;
14326;SDS011;7247;53.330;-1.180;2022-09-09T09:20:12;12.53;;;9.67;;
14326;SDS011;7247;53.330;-1.180;2022-09-09T09:22:43;12.80;;;10.00;;
14326;SDS011;7247;53.330;-1.180;2022-09-09T09:25:11;13.80;;;9.93;;
14326;SDS011;7247;53.330;-1.180;2022-09-09T09:27:43;15.37;;;11.40;;
14326;SDS011;7247;53.330;-1.180;2022-09-09T09:30:13;17.30;;;11.40;;
14326;SDS011;7247;53.330;-1.180;2022-09-09T09:32:41;14.57;;;11.57;;
14326;SDS011;7247;53.330;-1.180;2022-09-09T09:35:11;16.90;;;11.07;;
14326;SDS011;7247;53.330;-1.180;2022-09-09T09:37:39;42.90;;;12.93;;
14326;SDS011;7247;53.330;-1.180;2022-09-09T09:40:09;14.77;;;7.90;;
14326;SDS011;7247;53.330;-1.180;2022-09-09T09:42:36;12.67;;;8.63;;
14326;SDS011;7247;53.330;-1.180;2022-09-09T09:45:14;12.77;;;8.47;;
14326;SDS011;7247;53.330;-1.180;2022-09-09T09:47:44;13.30;;;8.60;;
14326;SDS011;7247;53.330;-1.180;2022-09-09T09:50:18;11.10;;;8.80;;
14326;SDS011;7247;53.330;-1.180;2022-09-09T09:52:53;12.53;;;9.07;;
14326;SDS011;7247;53.330;-1.180;2022-09-09T09:55:20;13.90;;;8.87;;
14326;SDS011;7247;53.330;-1.180;2022-09-09T09:57:47;13.87;;;8.07;;
14326;SDS011;7247;53.330;-1.180;2022-09-09T10:00:15;10.00;;;7.83;;
14326;SDS011;7247;53.330;-1.180;2022-09-09T10:02:42;10.50;;;7.60;;
14326;SDS011;7247;53.330;-1.180;2022-09-09T10:05:12;10.13;;;7.40;;
14326;SDS011;7247;53.330;-1.180;2022-09-09T10:07:41;10.93;;;7.70;;
14326;SDS011;7247;53.330;-1.180;2022-09-09T10:10:09;14.60;;;7.23;;
14326;SDS011;7247;53.330;-1.180;2022-09-09T10:12:41;11.27;;;7.23;;
14326;SDS011;7247;53.330;-1.180;2022-09-09T10:15:20;10.63;;;7.20;;
14326;SDS011;7247;53.330;-1.180;2022-09-09T10:17:54;10.20;;;7.13;;
14326;SDS011;7247;53.330;-1.180;2022-09-09T10:20:25;10.83;;;6.67;;
14326;SDS011;7247;53.330;-1.180;2022-09-09T10:23:00;12.13;;;6.90;;
14326;SDS011;7247;53.330;-1.180;2022-09-09T10:25:35;11.27;;;6.90;;
14326;SDS011;7247;53.330;-1.180;2022-09-09T10:30:46;7.73;;;6.07;;
14326;SDS011;7247;53.330;-1.180;2022-09-09T10:33:19;9.50;;;6.50;;
14326;SDS011;7247;53.330;-1.180;2022-09-09T10:35:57;10.77;;;6.53;;
14326;SDS011;7247;53.330;-1.180;2022-09-09T10:38:29;8.87;;;6.27;;
14326;SDS011;7247;53.330;-1.180;2022-09-09T10:41:01;9.33;;;5.93;;
14326;SDS011;7247;53.330;-1.180;2022-09-09T10:43:35;10.83;;;5.80;;
14326;SDS011;7247;53.330;-1.180;2022-09-09T10:49:01;8.97;;;6.20;;
14326;SDS011;7247;53.330;-1.180;2022-09-09T10:51:33;7.83;;;5.10;;
14326;SDS011;7247;53.330;-1.180;2022-09-09T10:54:13;7.43;;;5.20;;
14326;SDS011;7247;53.330;-1.180;2022-09-09T10:56:44;6.27;;;4.50;;
14326;SDS011;7247;53.330;-1.180;2022-09-09T10:59:12;7.90;;;4.10;;
14326;SDS011;7247;53.330;-1.180;2022-09-09T11:01:41;9.97;;;4.43;;
14326;SDS011;7247;53.330;-1.180;2022-09-09T11:04:10;9.73;;;4.00;;
14326;SDS011;7247;53.330;-1.180;2022-09-09T11:06:43;10.30;;;4.20;;
14326;SDS011;7247;53.330;-1.180;2022-09-09T11:09:13;7.47;;;4.20;;
14326;SDS011;7247;53.330;-1.180;2022-09-09T11:11:43;9.80;;;4.27;;
14326;SDS011;7247;53.330;-1.180;2022-09-09T11:14:13;8.10;;;4.50;;
14326;SDS011;7247;53.330;-1.180;2022-09-09T11:16:46;8.73;;;4.40;;
14326;SDS011;7247;53.330;-1.180;2022-09-09T11:19:16;7.63;;;4.07;;
14326;SDS011;7247;53.330;-1.180;2022-09-09T11:21:46;7.27;;;3.63;;
14326;SDS011;7247;53.330;-1.180;2022-09-09T11:24:17;6.23;;;3.83;;
14326;SDS011;7247;53.330;-1.180;2022-09-09T11:26:46;6.05;;;3.50;;
14326;SDS011;7247;53.330;-1.180;2022-09-09T11:32:06;7.87;;;3.90;;
14326;SDS011;7247;53.330;-1.180;2022-09-09T11:34:37;5.10;;;2.60;;
14326;SDS011;7247;53.330;-1.180;2022-09-09T11:37:31;8.37;;;3.00;;
14326;SDS011;7247;53.330;-1.180;2022-09-09T11:42:45;5.47;;;2.50;;
14326;SDS011;7247;53.330;-1.180;2022-09-09T11:45:22;7.03;;;2.70;;
14326;SDS011;7247;53.330;-1.180;2022-09-09T11:47:51;6.85;;;2.50;;
14326;SDS011;7247;53.330;-1.180;2022-09-09T11:50:27;5.97;;;2.97;;
14326;SDS011;7247;53.330;-1.180;2022-09-09T11:53:03;6.40;;;2.90;;
14326;SDS011;7247;53.330;-1.180;2022-09-09T11:55:30;5.43;;;2.45;;
14326;SDS011;7247;53.330;-1.180;2022-09-09T11:57:59;5.07;;;2.45;;
14326;SDS011;7247;53.330;-1.180;2022-09-09T12:00:31;5.03;;;2.35;;
14326;SDS011;7247;53.330;-1.180;2022-09-09T12:02:58;5.68;;;2.15;;
14326;SDS011;7247;53.330;-1.180;2022-09-09T12:05:34;3.53;;;1.80;;
14326;SDS011;7247;53.330;-1.180;2022-09-09T12:08:02;2.05;;;0.88;;
14326;SDS011;7247;53.330;-1.180;2022-09-09T12:10:30;2.37;;;0.70;;
14326;SDS011;7247;53.330;-1.180;2022-09-09T12:13:09;1.93;;;0.80;;
14326;SDS011;7247;53.330;-1.180;2022-09-09T12:15:46;0.80;;;0.50;;
14326;SDS011;7247;53.330;-1.180;2022-09-09T12:18:14;2.97;;;0.80;;
14326;SDS011;7247;53.330;-1.180;2022-09-09T12:20:41;1.20;;;0.80;;
14326;SDS011;7247;53.330;-1.180;2022-09-09T12:23:19;1.83;;;0.80;;
14326;SDS011;7247;53.330;-1.180;2022-09-09T12:25:54;1.90;;;0.80;;
14326;SDS011;7247;53.330;-1.180;2022-09-09T12:28:24;2.97;;;0.97;;
14326;SDS011;7247;53.330;-1.180;2022-09-09T12:30:54;2.80;;;1.10;;
14326;SDS011;7247;53.330;-1.180;2022-09-09T12:33:23;3.27;;;1.00;;
14326;SDS011;7247;53.330;-1.180;2022-09-09T12:35:51;3.77;;;1.37;;
14326;SDS011;7247;53.330;-1.180;2022-09-09T12:38:21;4.57;;;1.33;;
14326;SDS011;7247;53.330;-1.180;2022-09-09T12:40:54;2.53;;;1.20;;
14326;SDS011;7247;53.330;-1.180;2022-09-09T12:43:21;3.87;;;1.23;;
14326;SDS011;7247;53.330;-1.180;2022-09-09T12:45:54;4.13;;;1.50;;
14326;SDS011;7247;53.330;-1.180;2022-09-09T12:48:25;2.07;;;1.20;;
14326;SDS011;7247;53.330;-1.180;2022-09-09T12:50:53;2.83;;;1.60;;
14326;SDS011;7247;53.330;-1.180;2022-09-09T12:53:21;2.60;;;1.20;;
14326;SDS011;7247;53.330;-1.180;2022-09-09T12:55:50;3.97;;;1.47;;
14326;SDS011;7247;53.330;-1.180;2022-09-09T12:58:17;3.33;;;1.60;;
14326;SDS011;7247;53.330;-1.180;2022-09-09T13:00:48;5.00;;;1.73;;
14326;SDS011;7247;53.330;-1.180;2022-09-09T13:03:19;5.87;;;1.50;;
14326;SDS011;7247;53.330;-1.180;2022-09-09T13:05:47;5.27;;;1.67;;
14326;SDS011;7247;53.330;-1.180;2022-09-09T13:08:14;4.83;;;1.70;;
14326;SDS011;7247;53.330;-1.180;2022-09-09T13:10:46;4.53;;;1.50;;
14326;SDS011;7247;53.330;-1.180;2022-09-09T13:13:13;3.10;;;1.30;;
14326;SDS011;7247;53.330;-1.180;2022-09-09T13:15:48;2.37;;;1.40;;
14326;SDS011;7247;53.330;-1.180;2022-09-09T13:18:16;3.67;;;1.50;;
14326;SDS011;7247;53.330;-1.180;2022-09-09T13:20:47;2.40;;;1.30;;
14326;SDS011;7247;53.330;-1.180;2022-09-09T13:23:14;2.87;;;1.13;;
14326;SDS011;7247;53.330;-1.180;2022-09-09T13:25:51;4.00;;;1.27;;
14326;SDS011;7247;53.330;-1.180;2022-09-09T13:28:20;3.47;;;1.37;;
14326;SDS011;7247;53.330;-1.180;2022-09-09T13:30:54;4.00;;;1.50;;
14326;SDS011;7247;53.330;-1.180;2022-09-09T13:33:28;5.37;;;1.53;;
14326;SDS011;7247;53.330;-1.180;2022-09-09T13:35:58;3.17;;;1.27;;
14326;SDS011;7247;53.330;-1.180;2022-09-09T13:38:25;2.60;;;1.23;;
14326;SDS011;7247;53.330;-1.180;2022-09-09T13:40:55;5.90;;;1.50;;
14326;SDS011;7247;53.330;-1.180;2022-09-09T13:43:23;3.33;;;1.30;;
14326;SDS011;7247;53.330;-1.180;2022-09-09T13:45:55;3.80;;;1.00;;
14326;SDS011;7247;53.330;-1.180;2022-09-09T13:48:23;4.80;;;1.50;;
14326;SDS011;7247;53.330;-1.180;2022-09-09T13:50:58;4.07;;;1.33;;
14326;SDS011;7247;53.330;-1.180;2022-09-09T13:53:24;3.53;;;1.20;;
14326;SDS011;7247;53.330;-1.180;2022-09-09T13:58:37;2.37;;;1.40;;
14326;SDS011;7247;53.330;-1.180;2022-09-09T14:01:04;5.33;;;1.57;;
14326;SDS011;7247;53.330;-1.180;2022-09-09T14:03:30;3.50;;;1.63;;
14326;SDS011;7247;53.330;-1.180;2022-09-09T14:06:00;6.37;;;1.53;;
14326;SDS011;7247;53.330;-1.180;2022-09-09T14:08:27;2.90;;;1.30;;
14326;SDS011;7247;53.330;-1.180;2022-09-09T14:11:02;3.90;;;1.30;;
14326;SDS011;7247;53.330;-1.180;2022-09-09T14:13:28;3.20;;;1.20;;
14326;SDS011;7247;53.330;-1.180;2022-09-09T14:15:56;4.00;;;1.43;;
14326;SDS011;7247;53.330;-1.180;2022-09-09T14:18:22;5.70;;;2.00;;
14326;SDS011;7247;53.330;-1.180;2022-09-09T14:20:50;3.60;;;1.40;;
14326;SDS011;7247;53.330;-1.180;2022-09-09T14:23:18;4.17;;;2.00;;
14326;SDS011;7247;53.330;-1.180;2022-09-09T14:25:49;5.03;;;2.20;;
14326;SDS011;7247;53.330;-1.180;2022-09-09T14:28:15;6.20;;;1.87;;
14326;SDS011;7247;53.330;-1.180;2022-09-09T14:30:42;5.87;;;2.23;;
14326;SDS011;7247;53.330;-1.180;2022-09-09T14:33:09;4.93;;;2.30;;
14326;SDS011;7247;53.330;-1.180;2022-09-09T14:35:38;6.20;;;2.50;;
14326;SDS011;7247;53.330;-1.180;2022-09-09T14:38:06;6.20;;;2.20;;
14326;SDS011;7247;53.330;-1.180;2022-09-09T14:40:34;6.40;;;1.73;;
14326;SDS011;7247;53.330;-1.180;2022-09-09T14:43:01;7.73;;;2.30;;
14326;SDS011;7247;53.330;-1.180;2022-09-09T14:45:30;5.30;;;1.90;;
14326;SDS011;7247;53.330;-1.180;2022-09-09T14:47:56;4.70;;;1.73;;
14326;SDS011;7247;53.330;-1.180;2022-09-09T14:50:24;7.87;;;1.80;;
14326;SDS011;7247;53.330;-1.180;2022-09-09T14:52:50;4.30;;;1.23;;
14326;SDS011;7247;53.330;-1.180;2022-09-09T14:57:48;4.13;;;1.50;;
14326;SDS011;7247;53.330;-1.180;2022-09-09T15:00:15;2.97;;;1.60;;
14326;SDS011;7247;53.330;-1.180;2022-09-09T15:02:41;2.57;;;1.33;;
14326;SDS011;7247;53.330;-1.180;2022-09-09T15:05:08;3.23;;;1.40;;